createdAt,value
2018-01-05T09:49:58.104Z,8.10
2018-01-05T09:52:36.781Z,8.10
2018-01-05T09:55:14.274Z,8.10
2018-01-05T10:03:29.174Z,8.20
2018-01-05T10:05:56.656Z,8.20
2018-01-05T10:08:24.099Z,8.20
2018-01-05T10:10:51.697Z,8.20
2018-01-05T10:13:19.654Z,8.30
2018-01-05T10:15:47.186Z,8.30
2018-01-05T10:18:14.737Z,8.40
2018-01-05T10:20:42.295Z,8.50
2018-01-05T10:23:10.120Z,8.50
2018-01-05T10:25:38.434Z,8.50
2018-01-05T10:28:06.443Z,8.50
2018-01-05T10:30:33.904Z,8.50
2018-01-05T10:33:01.496Z,8.60
2018-01-05T10:35:28.948Z,8.60
2018-01-05T10:37:57.197Z,8.70
2018-01-05T10:40:24.711Z,8.70
2018-01-05T10:42:52.369Z,8.70
2018-01-05T10:45:19.852Z,8.70
2018-01-05T10:47:47.288Z,8.70
2018-01-05T10:50:14.869Z,8.80
2018-01-05T10:52:42.348Z,8.80
2018-01-05T10:55:09.812Z,8.90
2018-01-05T10:57:37.385Z,8.90
2018-01-05T11:00:05.587Z,9.00
2018-01-05T11:02:33.334Z,9.00
2018-01-05T11:05:01.583Z,9.10
2018-01-05T11:07:29.186Z,9.10
2018-01-05T11:09:56.958Z,9.10
2018-01-05T11:12:24.990Z,9.10
2018-01-05T11:14:53.297Z,9.10
2018-01-05T11:17:20.843Z,9.20
2018-01-05T11:19:48.289Z,9.20
2018-01-05T11:22:15.936Z,9.20
2018-01-05T11:24:44.387Z,9.10
2018-01-05T11:27:12.340Z,9.20
2018-01-05T11:29:39.789Z,9.10
2018-01-05T11:32:07.278Z,9.10
2018-01-05T11:34:34.782Z,9.20
2018-01-05T11:37:02.287Z,9.20
2018-01-05T11:39:29.785Z,9.20
2018-01-05T11:41:57.261Z,9.20
2018-01-05T11:44:25.893Z,9.30
2018-01-05T11:46:53.348Z,9.30
2018-01-05T11:49:20.838Z,9.30
2018-01-05T11:51:48.712Z,9.30
2018-01-05T11:54:16.757Z,9.30
2018-01-05T11:56:44.985Z,9.30
2018-01-05T11:59:12.430Z,9.30
2018-01-05T12:01:39.942Z,9.30
2018-01-05T12:04:07.408Z,9.30
2018-01-05T12:06:35.637Z,9.40
2018-01-05T12:09:03.169Z,9.40
2018-01-05T12:11:30.732Z,9.40
2018-01-05T12:13:58.204Z,9.50
2018-01-05T12:16:25.678Z,9.50
2018-01-05T12:18:53.308Z,9.60
2018-01-05T12:21:20.884Z,9.60
2018-01-05T12:23:49.078Z,9.70
2018-01-05T12:26:17.312Z,9.70
2018-01-05T12:28:45.282Z,9.70
2018-01-05T12:31:12.845Z,9.60
2018-01-05T12:33:40.560Z,9.60
2018-01-05T12:36:08.168Z,9.70
2018-01-05T12:38:35.641Z,9.70
2018-01-05T12:41:03.476Z,9.70
2018-01-05T12:43:31.201Z,9.80
2018-01-05T12:45:58.662Z,9.80
2018-01-05T12:48:26.424Z,9.80
2018-01-05T12:50:53.886Z,9.90
2018-01-05T12:53:22.113Z,9.80
2018-01-05T12:55:50.633Z,9.80
2018-01-05T12:58:18.490Z,9.80
2018-01-05T13:00:46.086Z,9.80
2018-01-05T13:03:14.306Z,9.80
2018-01-05T13:05:42.047Z,9.80
2018-01-05T13:08:09.654Z,9.80
2018-01-05T13:10:37.897Z,9.90
2018-01-05T13:13:05.697Z,9.90
2018-01-05T13:15:34.410Z,9.90
2018-01-05T13:18:02.027Z,10.00
2018-01-05T13:20:29.511Z,10.00
2018-01-05T13:22:58.216Z,10.00
2018-01-05T13:25:26.585Z,10.00
2018-01-05T13:27:57.164Z,10.00
2018-01-05T13:30:24.649Z,10.00
2018-01-05T13:32:53.813Z,10.00
2018-01-05T13:35:21.754Z,10.00
2018-01-05T13:37:49.973Z,10.00
2018-01-05T13:40:18.560Z,10.00
2018-01-05T13:42:46.283Z,10.00
2018-01-05T13:45:13.915Z,10.00
2018-01-05T13:47:42.272Z,9.90
2018-01-05T13:50:10.777Z,10.00
2018-01-05T13:52:39.757Z,9.90
2018-01-05T13:55:08.287Z,10.00
2018-01-05T13:57:36.956Z,10.00
2018-01-05T14:00:04.669Z,10.00
2018-01-05T14:02:32.894Z,10.00
2018-01-05T14:05:00.394Z,10.00
2018-01-05T14:07:27.854Z,10.10
2018-01-05T14:09:55.290Z,10.10
2018-01-05T14:12:23.066Z,10.10
2018-01-05T14:14:50.514Z,10.10
2018-01-05T14:17:18.282Z,10.10
2018-01-05T14:19:46.477Z,10.10
2018-01-05T14:22:13.929Z,10.10
2018-01-05T14:24:41.967Z,10.00
2018-01-05T14:27:11.077Z,10.00
2018-01-05T14:29:39.045Z,10.00
2018-01-05T14:32:06.709Z,10.00
2018-01-05T14:34:34.159Z,10.00
2018-01-05T14:37:01.971Z,10.00
2018-01-05T14:39:30.182Z,10.00
2018-01-05T14:41:57.933Z,10.00
2018-01-05T14:44:25.387Z,9.90
2018-01-05T14:46:53.122Z,9.90
2018-01-05T14:49:21.334Z,9.90
2018-01-05T14:51:48.932Z,9.90
2018-01-05T14:54:16.734Z,9.90
2018-01-05T14:56:45.263Z,9.90
2018-01-05T14:59:12.710Z,9.90
2018-01-05T15:01:40.346Z,9.90
2018-01-05T15:04:07.802Z,9.90
2018-01-05T15:06:35.467Z,9.90
2018-01-05T15:09:02.950Z,10.00
2018-01-05T15:11:30.398Z,10.00
2018-01-05T15:13:57.846Z,10.00
2018-01-05T15:16:25.984Z,10.00
2018-01-05T15:18:54.022Z,10.00
2018-01-05T15:21:21.541Z,10.00
2018-01-05T15:23:48.977Z,10.00
2018-01-05T15:26:16.480Z,10.10
2018-01-05T15:28:44.506Z,10.10
2018-01-05T15:31:12.110Z,10.10
2018-01-05T15:33:39.622Z,10.10
2018-01-05T15:36:07.199Z,10.20
2018-01-05T15:38:34.683Z,10.20
2018-01-05T15:41:02.548Z,10.20
2018-01-05T15:43:30.412Z,10.20
2018-01-05T15:45:57.984Z,10.20
2018-01-05T15:48:25.602Z,10.20
2018-01-05T15:50:53.169Z,10.20
2018-01-05T15:53:20.630Z,10.20
2018-01-05T15:55:48.217Z,10.20
2018-01-05T15:58:15.739Z,10.20
2018-01-05T16:00:43.329Z,10.10
2018-01-05T16:03:11.302Z,10.00
2018-01-05T16:05:38.823Z,10.00
2018-01-05T16:08:06.317Z,10.00
2018-01-05T16:10:33.853Z,10.00
2018-01-05T16:13:01.949Z,10.00
2018-01-05T16:15:29.809Z,10.00
2018-01-05T16:17:57.332Z,10.00
2018-01-05T16:20:24.789Z,9.90
2018-01-05T16:22:52.285Z,9.90
2018-01-05T16:25:19.761Z,9.90
2018-01-05T16:27:48.591Z,9.80
2018-01-05T16:30:16.938Z,9.80
2018-01-05T16:32:44.374Z,9.80
2018-01-05T16:35:12.018Z,9.80
2018-01-05T16:37:39.463Z,9.80
2018-01-05T16:40:06.924Z,9.80
2018-01-05T16:42:34.478Z,9.80
2018-01-05T16:45:02.253Z,9.80
2018-01-05T16:47:29.708Z,9.80
2018-01-05T16:49:57.382Z,9.80
2018-01-05T16:52:24.897Z,9.70
2018-01-05T16:54:52.340Z,9.70
2018-01-05T16:57:19.915Z,9.70
2018-01-05T16:59:47.366Z,9.70
2018-01-05T17:02:16.214Z,9.70
2018-01-05T17:04:45.823Z,9.70
2018-01-05T17:07:14.140Z,9.70
2018-01-05T17:09:41.582Z,9.70
2018-01-05T17:12:09.291Z,9.70
2018-01-05T17:14:36.821Z,9.70
2018-01-05T17:17:04.582Z,9.70
2018-01-05T17:19:32.452Z,9.60
2018-01-05T17:21:59.932Z,9.60
2018-01-05T17:24:27.464Z,9.60
2018-01-05T17:26:55.464Z,9.50
2018-01-05T17:29:23.398Z,9.50
2018-01-05T17:31:50.869Z,9.40
2018-01-05T17:34:19.111Z,9.40
2018-01-05T17:36:46.585Z,9.40
2018-01-05T17:39:14.062Z,9.40
2018-01-05T17:41:41.602Z,9.40
2018-01-05T17:44:09.059Z,9.40
2018-01-05T17:46:36.764Z,9.40
2018-01-05T17:49:04.243Z,9.40
2018-01-05T17:51:32.486Z,9.40
2018-01-05T17:53:59.936Z,9.40
2018-01-05T17:56:27.473Z,9.40
2018-01-05T17:58:54.977Z,9.50
2018-01-05T18:01:22.816Z,9.50
2018-01-05T18:03:50.586Z,9.50
2018-01-05T18:06:18.044Z,9.50
2018-01-05T18:08:45.500Z,9.50
2018-01-05T18:11:12.959Z,9.50
2018-01-05T18:13:41.044Z,9.50
2018-01-05T18:16:08.510Z,9.50
2018-01-05T18:18:36.713Z,9.50
2018-01-05T18:21:04.292Z,9.50
2018-01-05T18:23:31.741Z,9.50
2018-01-05T18:25:59.197Z,9.60
2018-01-05T18:28:26.925Z,9.50
2018-01-05T18:30:54.843Z,9.50
2018-01-05T18:33:22.305Z,9.40
2018-01-05T18:35:50.110Z,9.40
2018-01-05T18:38:17.577Z,9.40
2018-01-05T18:40:45.854Z,9.30
2018-01-05T18:43:14.133Z,9.20
2018-01-05T18:45:41.590Z,9.30
2018-01-05T18:48:09.210Z,9.30
2018-01-05T18:50:37.070Z,9.30
2018-01-05T18:53:04.597Z,9.20
2018-01-05T18:55:32.064Z,9.20
2018-01-05T18:58:00.153Z,9.20
2018-01-05T19:00:27.681Z,9.20
2018-01-05T19:02:55.126Z,9.20
2018-01-05T19:05:22.630Z,9.20
2018-01-05T19:07:50.068Z,9.20
2018-01-05T19:10:17.770Z,9.20
2018-01-05T19:12:45.997Z,9.30
2018-01-05T19:15:13.551Z,9.20
2018-01-05T19:17:41.188Z,9.20
2018-01-05T19:20:08.645Z,9.20
2018-01-05T19:22:37.082Z,9.20
2018-01-05T19:25:04.526Z,9.20
2018-01-05T19:27:33.133Z,9.10
2018-01-05T19:30:01.299Z,9.10
2018-01-05T19:32:28.771Z,8.90
2018-01-05T19:34:57.025Z,8.70
2018-01-05T19:37:24.488Z,8.70
2018-01-05T19:39:51.976Z,8.70
2018-01-05T19:42:20.216Z,8.50
2018-01-05T19:44:47.657Z,8.50
2018-01-05T19:47:15.887Z,8.50
2018-01-05T19:49:44.492Z,8.50
2018-01-05T19:52:11.962Z,8.50
2018-01-05T19:54:39.428Z,8.40
2018-01-05T19:57:06.922Z,8.40
2018-01-05T19:59:35.151Z,8.40
2018-01-05T20:02:02.592Z,8.40
2018-01-05T20:04:30.121Z,8.40
2018-01-05T20:06:58.579Z,8.40
2018-01-05T20:09:26.090Z,8.40
2018-01-05T20:11:53.529Z,8.40
2018-01-05T20:14:21.754Z,8.30
2018-01-05T20:16:49.225Z,8.30
2018-01-05T20:19:16.795Z,8.40
2018-01-05T20:21:44.428Z,8.30
2018-01-05T20:24:12.059Z,8.30
2018-01-05T20:26:40.374Z,8.40
2018-01-05T20:29:09.168Z,8.30
2018-01-05T20:31:37.317Z,8.30
2018-01-05T20:34:04.984Z,8.40
2018-01-05T20:36:32.781Z,8.40
2018-01-05T20:39:00.481Z,8.40
2018-01-05T20:41:28.556Z,8.40
2018-01-05T20:43:56.318Z,8.40
2018-01-05T20:46:23.875Z,8.40
2018-01-05T20:48:51.300Z,8.40
2018-01-05T20:51:20.490Z,8.50
2018-01-05T20:53:48.033Z,8.50
2018-01-05T20:56:15.875Z,8.50
2018-01-05T20:58:43.308Z,8.50
2018-01-05T21:01:11.424Z,8.50
2018-01-05T21:03:38.942Z,8.50
2018-01-05T21:06:06.416Z,8.50
2018-01-05T21:08:34.056Z,8.50
2018-01-05T21:11:01.636Z,8.40
2018-01-05T21:13:29.078Z,8.40
2018-01-05T21:15:56.636Z,8.40
2018-01-05T21:18:24.344Z,8.40
2018-01-05T21:20:51.953Z,8.40
2018-01-05T21:23:19.573Z,8.40
2018-01-05T21:25:47.785Z,8.40
2018-01-05T21:28:15.888Z,8.40
2018-01-05T21:30:43.825Z,8.30
2018-01-05T21:33:11.384Z,8.30
2018-01-05T21:35:39.057Z,8.30
2018-01-05T21:38:06.913Z,8.20
2018-01-05T21:40:34.507Z,8.20
2018-01-05T21:43:01.959Z,8.10
2018-01-05T21:45:29.441Z,8.10
2018-01-05T21:47:56.872Z,8.00
2018-01-05T21:50:26.300Z,8.00
2018-01-05T21:52:53.800Z,8.00
2018-01-05T21:55:21.421Z,8.10
2018-01-05T21:57:48.845Z,8.00
2018-01-05T22:00:16.327Z,8.00
2018-01-05T22:02:44.557Z,8.10
2018-01-05T22:05:12.105Z,8.10
2018-01-05T22:07:39.668Z,8.10
2018-01-05T22:10:07.125Z,8.10
2018-01-05T22:12:34.828Z,8.10
2018-01-05T22:15:02.525Z,8.10
2018-01-05T22:17:29.999Z,8.10
2018-01-05T22:19:57.673Z,8.00
2018-01-05T22:22:25.370Z,8.00
2018-01-05T22:24:52.867Z,8.00
2018-01-05T22:27:21.401Z,8.10
2018-01-05T22:29:48.882Z,8.10
2018-01-05T22:32:18.666Z,8.00
2018-01-05T22:34:46.253Z,8.00
2018-01-05T22:37:14.133Z,8.00
2018-01-05T22:39:42.093Z,8.00
2018-01-05T22:42:10.325Z,8.00
2018-01-05T22:44:37.863Z,8.00
2018-01-05T22:47:05.301Z,8.00
2018-01-05T22:49:32.784Z,7.90
2018-01-05T22:52:00.236Z,7.90
2018-01-05T22:54:27.889Z,7.90
2018-01-05T22:56:55.348Z,7.90
2018-01-05T22:59:23.068Z,7.90
2018-01-05T23:01:50.879Z,7.90
2018-01-05T23:04:18.353Z,7.90
2018-01-05T23:06:45.810Z,7.90
2018-01-05T23:09:13.283Z,7.90
2018-01-05T23:11:40.721Z,7.90
2018-01-05T23:14:08.278Z,8.00
2018-01-05T23:16:35.818Z,7.90
2018-01-05T23:19:03.376Z,7.90
2018-01-05T23:21:30.841Z,7.90
2018-01-05T23:23:58.295Z,7.90
2018-01-05T23:26:25.848Z,7.90
2018-01-05T23:28:53.808Z,7.90
2018-01-05T23:31:21.724Z,7.80
2018-01-05T23:33:49.165Z,7.80
2018-01-05T23:36:16.625Z,7.80
2018-01-05T23:38:44.067Z,7.80
2018-01-05T23:41:11.540Z,7.80
2018-01-05T23:43:38.976Z,7.80
2018-01-05T23:46:06.456Z,7.70
2018-01-05T23:48:33.880Z,7.70
2018-01-05T23:51:01.672Z,7.70
2018-01-05T23:53:29.117Z,7.70
2018-01-05T23:55:56.635Z,7.70
2018-01-05T23:58:24.134Z,7.60
